sensor_id;sensor_type;location;lat;lon;timestamp;P1;durP1;ratioP1;P2;durP2;ratioP2
23171;SDS011;11754;42.664;23.594;2023-02-10T00:01:28;30.92;;;13.57;;
23171;SDS011;11754;42.664;23.594;2023-02-10T00:03:54;32.38;;;14.45;;
23171;SDS011;11754;42.664;23.594;2023-02-10T00:06:22;50.20;;;23.67;;
23171;SDS011;11754;42.664;23.594;2023-02-10T00:08:55;51.20;;;20.63;;
23171;SDS011;11754;42.664;23.594;2023-02-10T00:11:23;72.93;;;30.50;;
23171;SDS011;11754;42.664;23.594;2023-02-10T00:14:09;47.88;;;21.08;;
23171;SDS011;11754;42.664;23.594;2023-02-10T00:16:35;73.03;;;28.15;;
23171;SDS011;11754;42.664;23.594;2023-02-10T00:19:00;67.78;;;27.42;;
23171;SDS011;11754;42.664;23.594;2023-02-10T00:21:25;56.88;;;24.33;;
23171;SDS011;11754;42.664;23.594;2023-02-10T00:23:51;45.78;;;20.85;;
23171;SDS011;11754;42.664;23.594;2023-02-10T00:26:16;52.33;;;23.15;;
23171;SDS011;11754;42.664;23.594;2023-02-10T00:28:42;71.47;;;25.95;;
23171;SDS011;11754;42.664;23.594;2023-02-10T00:31:08;52.75;;;22.23;;
23171;SDS011;11754;42.664;23.594;2023-02-10T00:33:35;48.63;;;18.85;;
23171;SDS011;11754;42.664;23.594;2023-02-10T00:36:07;40.25;;;17.58;;
23171;SDS011;11754;42.664;23.594;2023-02-10T00:38:34;41.92;;;18.50;;
23171;SDS011;11754;42.664;23.594;2023-02-10T00:41:03;42.20;;;18.02;;
23171;SDS011;11754;42.664;23.594;2023-02-10T00:43:30;44.38;;;18.02;;
23171;SDS011;11754;42.664;23.594;2023-02-10T00:45:55;42.47;;;17.65;;
23171;SDS011;11754;42.664;23.594;2023-02-10T00:48:22;46.92;;;18.42;;
23171;SDS011;11754;42.664;23.594;2023-02-10T00:50:47;39.60;;;17.73;;
23171;SDS011;11754;42.664;23.594;2023-02-10T00:53:12;33.22;;;15.55;;
23171;SDS011;11754;42.664;23.594;2023-02-10T00:55:38;32.42;;;14.20;;
23171;SDS011;11754;42.664;23.594;2023-02-10T00:58:03;27.98;;;13.13;;
23171;SDS011;11754;42.664;23.594;2023-02-10T01:00:28;26.90;;;11.73;;
23171;SDS011;11754;42.664;23.594;2023-02-10T01:02:54;26.70;;;11.10;;
23171;SDS011;11754;42.664;23.594;2023-02-10T01:05:19;19.52;;;9.55;;
23171;SDS011;11754;42.664;23.594;2023-02-10T01:07:44;22.30;;;10.48;;
23171;SDS011;11754;42.664;23.594;2023-02-10T01:10:10;19.58;;;9.63;;
23171;SDS011;11754;42.664;23.594;2023-02-10T01:12:35;22.42;;;9.48;;
23171;SDS011;11754;42.664;23.594;2023-02-10T01:15:00;21.23;;;9.52;;
23171;SDS011;11754;42.664;23.594;2023-02-10T01:17:26;23.60;;;10.02;;
23171;SDS011;11754;42.664;23.594;2023-02-10T01:19:51;19.33;;;9.45;;
23171;SDS011;11754;42.664;23.594;2023-02-10T01:22:16;23.52;;;9.85;;
23171;SDS011;11754;42.664;23.594;2023-02-10T01:24:42;20.98;;;10.07;;
23171;SDS011;11754;42.664;23.594;2023-02-10T01:27:07;24.15;;;11.07;;
23171;SDS011;11754;42.664;23.594;2023-02-10T01:29:33;27.08;;;10.88;;
23171;SDS011;11754;42.664;23.594;2023-02-10T01:31:58;26.67;;;11.18;;
23171;SDS011;11754;42.664;23.594;2023-02-10T01:34:23;28.05;;;10.57;;
23171;SDS011;11754;42.664;23.594;2023-02-10T01:36:49;23.40;;;11.10;;
23171;SDS011;11754;42.664;23.594;2023-02-10T01:39:14;25.42;;;10.52;;
23171;SDS011;11754;42.664;23.594;2023-02-10T01:41:40;24.08;;;10.85;;
23171;SDS011;11754;42.664;23.594;2023-02-10T01:46:43;30.05;;;12.57;;
23171;SDS011;11754;42.664;23.594;2023-02-10T01:49:09;30.55;;;12.63;;
23171;SDS011;11754;42.664;23.594;2023-02-10T01:54:18;31.38;;;13.50;;
23171;SDS011;11754;42.664;23.594;2023-02-10T01:56:47;30.55;;;12.65;;
23171;SDS011;11754;42.664;23.594;2023-02-10T01:59:13;28.55;;;11.32;;
23171;SDS011;11754;42.664;23.594;2023-02-10T02:01:40;27.85;;;11.60;;
23171;SDS011;11754;42.664;23.594;2023-02-10T02:04:05;26.27;;;10.77;;
23171;SDS011;11754;42.664;23.594;2023-02-10T02:06:31;26.30;;;11.32;;
23171;SDS011;11754;42.664;23.594;2023-02-10T02:08:58;28.73;;;12.50;;
23171;SDS011;11754;42.664;23.594;2023-02-10T02:17:13;29.75;;;13.07;;
23171;SDS011;11754;42.664;23.594;2023-02-10T02:20:08;27.25;;;11.43;;
23171;SDS011;11754;42.664;23.594;2023-02-10T02:23:23;28.90;;;10.60;;
23171;SDS011;11754;42.664;23.594;2023-02-10T02:28:48;30.10;;;10.90;;
23171;SDS011;11754;42.664;23.594;2023-02-10T02:34:13;28.30;;;10.32;;
23171;SDS011;11754;42.664;23.594;2023-02-10T02:37:09;25.60;;;10.52;;
23171;SDS011;11754;42.664;23.594;2023-02-10T02:39:40;27.13;;;9.88;;
23171;SDS011;11754;42.664;23.594;2023-02-10T02:42:26;24.15;;;10.27;;
23171;SDS011;11754;42.664;23.594;2023-02-10T02:53:01;19.65;;;9.43;;
23171;SDS011;11754;42.664;23.594;2023-02-10T02:58:20;24.50;;;9.68;;
23171;SDS011;11754;42.664;23.594;2023-02-10T03:00:55;30.05;;;12.40;;
23171;SDS011;11754;42.664;23.594;2023-02-10T03:03:29;24.90;;;11.95;;
23171;SDS011;11754;42.664;23.594;2023-02-10T03:05:58;25.80;;;11.43;;
23171;SDS011;11754;42.664;23.594;2023-02-10T03:08:23;21.67;;;9.27;;
23171;SDS011;11754;42.664;23.594;2023-02-10T03:10:49;23.40;;;10.25;;
23171;SDS011;11754;42.664;23.594;2023-02-10T03:13:14;21.58;;;10.25;;
23171;SDS011;11754;42.664;23.594;2023-02-10T03:15:39;22.23;;;10.10;;
23171;SDS011;11754;42.664;23.594;2023-02-10T03:18:05;34.85;;;14.35;;
23171;SDS011;11754;42.664;23.594;2023-02-10T03:20:30;46.17;;;17.17;;
23171;SDS011;11754;42.664;23.594;2023-02-10T03:22:55;79.78;;;27.65;;
23171;SDS011;11754;42.664;23.594;2023-02-10T03:25:21;32.40;;;13.10;;
23171;SDS011;11754;42.664;23.594;2023-02-10T03:27:46;30.85;;;11.43;;
23171;SDS011;11754;42.664;23.594;2023-02-10T03:30:11;23.73;;;10.55;;
23171;SDS011;11754;42.664;23.594;2023-02-10T03:32:37;25.45;;;11.55;;
23171;SDS011;11754;42.664;23.594;2023-02-10T03:35:02;35.33;;;16.88;;
23171;SDS011;11754;42.664;23.594;2023-02-10T03:37:28;45.67;;;20.33;;
23171;SDS011;11754;42.664;23.594;2023-02-10T03:39:53;54.20;;;23.75;;
23171;SDS011;11754;42.664;23.594;2023-02-10T03:42:18;41.78;;;18.40;;
23171;SDS011;11754;42.664;23.594;2023-02-10T03:44:44;39.47;;;18.52;;
23171;SDS011;11754;42.664;23.594;2023-02-10T03:47:09;42.15;;;18.55;;
23171;SDS011;11754;42.664;23.594;2023-02-10T03:49:34;63.40;;;21.67;;
23171;SDS011;11754;42.664;23.594;2023-02-10T03:52:00;33.17;;;13.57;;
23171;SDS011;11754;42.664;23.594;2023-02-10T03:54:25;25.67;;;11.20;;
23171;SDS011;11754;42.664;23.594;2023-02-10T03:56:50;23.40;;;9.73;;
23171;SDS011;11754;42.664;23.594;2023-02-10T03:59:16;18.10;;;8.38;;
23171;SDS011;11754;42.664;23.594;2023-02-10T04:01:41;19.77;;;8.45;;
23171;SDS011;11754;42.664;23.594;2023-02-10T04:04:06;18.63;;;8.40;;
23171;SDS011;11754;42.664;23.594;2023-02-10T04:06:32;19.63;;;9.30;;
23171;SDS011;11754;42.664;23.594;2023-02-10T04:08:57;20.85;;;10.32;;
23171;SDS011;11754;42.664;23.594;2023-02-10T04:11:22;28.73;;;10.95;;
23171;SDS011;11754;42.664;23.594;2023-02-10T04:13:48;26.50;;;11.45;;
23171;SDS011;11754;42.664;23.594;2023-02-10T04:16:14;29.95;;;12.43;;
23171;SDS011;11754;42.664;23.594;2023-02-10T04:18:40;27.27;;;12.20;;
23171;SDS011;11754;42.664;23.594;2023-02-10T04:21:08;25.70;;;11.80;;
23171;SDS011;11754;42.664;23.594;2023-02-10T04:23:35;26.45;;;11.80;;
23171;SDS011;11754;42.664;23.594;2023-02-10T04:26:01;25.23;;;11.27;;
23171;SDS011;11754;42.664;23.594;2023-02-10T04:28:27;24.58;;;10.90;;
23171;SDS011;11754;42.664;23.594;2023-02-10T04:30:55;25.13;;;10.88;;
23171;SDS011;11754;42.664;23.594;2023-02-10T04:33:23;25.33;;;10.63;;
23171;SDS011;11754;42.664;23.594;2023-02-10T04:35:50;23.13;;;11.13;;
23171;SDS011;11754;42.664;23.594;2023-02-10T04:38:16;27.60;;;11.80;;
23171;SDS011;11754;42.664;23.594;2023-02-10T04:40:42;22.33;;;10.40;;
23171;SDS011;11754;42.664;23.594;2023-02-10T04:43:08;26.23;;;12.77;;
23171;SDS011;11754;42.664;23.594;2023-02-10T04:45:34;27.05;;;12.98;;
23171;SDS011;11754;42.664;23.594;2023-02-10T04:48:00;26.55;;;12.95;;
23171;SDS011;11754;42.664;23.594;2023-02-10T04:50:25;36.40;;;17.30;;
23171;SDS011;11754;42.664;23.594;2023-02-10T04:52:51;54.08;;;25.30;;
23171;SDS011;11754;42.664;23.594;2023-02-10T04:55:16;47.80;;;24.45;;
23171;SDS011;11754;42.664;23.594;2023-02-10T04:57:41;42.55;;;20.85;;
23171;SDS011;11754;42.664;23.594;2023-02-10T05:00:07;168.68;;;55.72;;
23171;SDS011;11754;42.664;23.594;2023-02-10T05:02:33;140.45;;;52.83;;
23171;SDS011;11754;42.664;23.594;2023-02-10T05:04:58;60.55;;;25.20;;
23171;SDS011;11754;42.664;23.594;2023-02-10T05:07:23;46.33;;;22.95;;
23171;SDS011;11754;42.664;23.594;2023-02-10T05:09:49;32.30;;;15.95;;
23171;SDS011;11754;42.664;23.594;2023-02-10T05:12:14;31.02;;;13.88;;
23171;SDS011;11754;42.664;23.594;2023-02-10T05:14:39;23.00;;;10.52;;
23171;SDS011;11754;42.664;23.594;2023-02-10T05:17:05;25.20;;;10.95;;
23171;SDS011;11754;42.664;23.594;2023-02-10T05:19:31;22.40;;;11.07;;
23171;SDS011;11754;42.664;23.594;2023-02-10T05:21:57;24.27;;;11.05;;
23171;SDS011;11754;42.664;23.594;2023-02-10T05:24:22;22.30;;;11.52;;
23171;SDS011;11754;42.664;23.594;2023-02-10T05:26:48;25.65;;;11.75;;
23171;SDS011;11754;42.664;23.594;2023-02-10T05:29:13;35.15;;;13.68;;
23171;SDS011;11754;42.664;23.594;2023-02-10T05:31:39;37.28;;;15.93;;
23171;SDS011;11754;42.664;23.594;2023-02-10T05:34:04;88.60;;;26.90;;
23171;SDS011;11754;42.664;23.594;2023-02-10T05:36:30;66.40;;;25.88;;
23171;SDS011;11754;42.664;23.594;2023-02-10T05:38:55;56.80;;;23.77;;
23171;SDS011;11754;42.664;23.594;2023-02-10T05:41:39;70.22;;;25.83;;
23171;SDS011;11754;42.664;23.594;2023-02-10T05:44:04;45.40;;;18.85;;
23171;SDS011;11754;42.664;23.594;2023-02-10T05:46:30;57.08;;;20.85;;
23171;SDS011;11754;42.664;23.594;2023-02-10T05:48:55;60.03;;;23.80;;
23171;SDS011;11754;42.664;23.594;2023-02-10T05:51:20;52.58;;;21.25;;
23171;SDS011;11754;42.664;23.594;2023-02-10T05:53:46;54.17;;;22.58;;
23171;SDS011;11754;42.664;23.594;2023-02-10T05:56:11;50.05;;;20.50;;
23171;SDS011;11754;42.664;23.594;2023-02-10T05:58:36;58.33;;;20.00;;
23171;SDS011;11754;42.664;23.594;2023-02-10T06:01:05;40.42;;;18.38;;
23171;SDS011;11754;42.664;23.594;2023-02-10T06:03:32;36.63;;;16.38;;
23171;SDS011;11754;42.664;23.594;2023-02-10T06:05:57;59.22;;;24.20;;
23171;SDS011;11754;42.664;23.594;2023-02-10T06:08:23;62.70;;;25.95;;
23171;SDS011;11754;42.664;23.594;2023-02-10T06:10:48;43.63;;;17.60;;
23171;SDS011;11754;42.664;23.594;2023-02-10T06:13:13;47.10;;;21.02;;
23171;SDS011;11754;42.664;23.594;2023-02-10T06:15:39;58.47;;;23.20;;
23171;SDS011;11754;42.664;23.594;2023-02-10T06:18:04;54.58;;;22.52;;
23171;SDS011;11754;42.664;23.594;2023-02-10T06:20:29;55.33;;;22.05;;
23171;SDS011;11754;42.664;23.594;2023-02-10T06:22:55;41.80;;;19.05;;
23171;SDS011;11754;42.664;23.594;2023-02-10T06:25:20;43.83;;;20.15;;
23171;SDS011;11754;42.664;23.594;2023-02-10T06:27:45;43.75;;;19.67;;
23171;SDS011;11754;42.664;23.594;2023-02-10T06:30:11;45.00;;;19.38;;
23171;SDS011;11754;42.664;23.594;2023-02-10T06:32:37;40.88;;;16.20;;
23171;SDS011;11754;42.664;23.594;2023-02-10T06:35:02;36.95;;;17.27;;
23171;SDS011;11754;42.664;23.594;2023-02-10T06:37:28;36.80;;;15.68;;
23171;SDS011;11754;42.664;23.594;2023-02-10T06:39:54;31.67;;;15.35;;
23171;SDS011;11754;42.664;23.594;2023-02-10T06:42:19;37.83;;;16.77;;
23171;SDS011;11754;42.664;23.594;2023-02-10T06:44:45;56.78;;;21.42;;
23171;SDS011;11754;42.664;23.594;2023-02-10T06:47:10;42.83;;;17.15;;
23171;SDS011;11754;42.664;23.594;2023-02-10T06:49:36;43.53;;;18.63;;
23171;SDS011;11754;42.664;23.594;2023-02-10T06:52:02;37.10;;;17.23;;
23171;SDS011;11754;42.664;23.594;2023-02-10T06:54:28;38.83;;;17.10;;
23171;SDS011;11754;42.664;23.594;2023-02-10T06:56:53;52.10;;;21.25;;
23171;SDS011;11754;42.664;23.594;2023-02-10T06:59:18;68.93;;;28.23;;
23171;SDS011;11754;42.664;23.594;2023-02-10T07:01:45;59.33;;;27.13;;
23171;SDS011;11754;42.664;23.594;2023-02-10T07:04:11;36.58;;;17.95;;
23171;SDS011;11754;42.664;23.594;2023-02-10T07:06:37;42.92;;;19.38;;
23171;SDS011;11754;42.664;23.594;2023-02-10T07:09:03;46.42;;;20.52;;
23171;SDS011;11754;42.664;23.594;2023-02-10T07:11:29;38.22;;;19.58;;
23171;SDS011;11754;42.664;23.594;2023-02-10T07:13:55;40.72;;;20.38;;
23171;SDS011;11754;42.664;23.594;2023-02-10T07:16:21;38.88;;;19.52;;
23171;SDS011;11754;42.664;23.594;2023-02-10T07:18:47;44.28;;;21.25;;
23171;SDS011;11754;42.664;23.594;2023-02-10T07:21:12;38.28;;;19.58;;
23171;SDS011;11754;42.664;23.594;2023-02-10T07:23:38;45.35;;;22.00;;
23171;SDS011;11754;42.664;23.594;2023-02-10T07:26:04;37.13;;;17.90;;
23171;SDS011;11754;42.664;23.594;2023-02-10T07:28:30;34.75;;;17.88;;
23171;SDS011;11754;42.664;23.594;2023-02-10T07:30:55;37.65;;;18.52;;
23171;SDS011;11754;42.664;23.594;2023-02-10T07:33:21;35.53;;;18.73;;
23171;SDS011;11754;42.664;23.594;2023-02-10T07:35:46;46.33;;;22.35;;
23171;SDS011;11754;42.664;23.594;2023-02-10T07:38:12;41.03;;;21.02;;
23171;SDS011;11754;42.664;23.594;2023-02-10T07:40:37;45.40;;;20.95;;
23171;SDS011;11754;42.664;23.594;2023-02-10T07:43:03;44.67;;;21.48;;
23171;SDS011;11754;42.664;23.594;2023-02-10T07:45:28;45.50;;;21.23;;
23171;SDS011;11754;42.664;23.594;2023-02-10T07:47:56;40.40;;;20.70;;
23171;SDS011;11754;42.664;23.594;2023-02-10T07:50:22;41.78;;;20.67;;
23171;SDS011;11754;42.664;23.594;2023-02-10T07:52:48;41.30;;;21.02;;
23171;SDS011;11754;42.664;23.594;2023-02-10T07:55:14;44.03;;;22.30;;
23171;SDS011;11754;42.664;23.594;2023-02-10T07:57:40;44.60;;;21.75;;
23171;SDS011;11754;42.664;23.594;2023-02-10T08:00:06;37.17;;;19.20;;
23171;SDS011;11754;42.664;23.594;2023-02-10T08:02:32;31.92;;;16.40;;
23171;SDS011;11754;42.664;23.594;2023-02-10T08:04:58;42.20;;;24.48;;
23171;SDS011;11754;42.664;23.594;2023-02-10T08:07:24;35.60;;;21.13;;
23171;SDS011;11754;42.664;23.594;2023-02-10T08:09:49;34.47;;;18.55;;
23171;SDS011;11754;42.664;23.594;2023-02-10T08:12:14;27.80;;;17.30;;
23171;SDS011;11754;42.664;23.594;2023-02-10T08:14:40;33.58;;;17.85;;
23171;SDS011;11754;42.664;23.594;2023-02-10T08:17:05;34.63;;;19.38;;
23171;SDS011;11754;42.664;23.594;2023-02-10T08:19:30;30.10;;;17.15;;
23171;SDS011;11754;42.664;23.594;2023-02-10T08:21:56;32.95;;;18.15;;
23171;SDS011;11754;42.664;23.594;2023-02-10T08:24:22;29.15;;;16.33;;
23171;SDS011;11754;42.664;23.594;2023-02-10T08:26:47;29.42;;;16.73;;
23171;SDS011;11754;42.664;23.594;2023-02-10T08:29:12;27.90;;;17.10;;
23171;SDS011;11754;42.664;23.594;2023-02-10T08:31:38;29.85;;;15.98;;
23171;SDS011;11754;42.664;23.594;2023-02-10T08:34:03;29.20;;;17.63;;
23171;SDS011;11754;42.664;23.594;2023-02-10T08:36:29;26.15;;;16.45;;
23171;SDS011;11754;42.664;23.594;2023-02-10T08:38:56;25.52;;;15.07;;
23171;SDS011;11754;42.664;23.594;2023-02-10T08:41:22;29.52;;;16.42;;
23171;SDS011;11754;42.664;23.594;2023-02-10T08:43:48;29.15;;;15.75;;
23171;SDS011;11754;42.664;23.594;2023-02-10T08:46:13;27.38;;;15.68;;
23171;SDS011;11754;42.664;23.594;2023-02-10T08:48:39;28.88;;;17.77;;
23171;SDS011;11754;42.664;23.594;2023-02-10T08:51:05;28.02;;;16.00;;
23171;SDS011;11754;42.664;23.594;2023-02-10T08:53:35;26.42;;;15.73;;
23171;SDS011;11754;42.664;23.594;2023-02-10T08:56:03;26.20;;;15.48;;
23171;SDS011;11754;42.664;23.594;2023-02-10T08:58:30;24.38;;;15.85;;
23171;SDS011;11754;42.664;23.594;2023-02-10T09:00:55;24.58;;;14.85;;
23171;SDS011;11754;42.664;23.594;2023-02-10T09:03:21;21.25;;;14.32;;
23171;SDS011;11754;42.664;23.594;2023-02-10T09:05:47;25.30;;;15.95;;
23171;SDS011;11754;42.664;23.594;2023-02-10T09:08:13;23.77;;;14.90;;
23171;SDS011;11754;42.664;23.594;2023-02-10T09:10:41;21.63;;;13.88;;
23171;SDS011;11754;42.664;23.594;2023-02-10T09:13:07;20.98;;;13.98;;
23171;SDS011;11754;42.664;23.594;2023-02-10T09:15:38;23.50;;;14.32;;
23171;SDS011;11754;42.664;23.594;2023-02-10T09:18:05;25.77;;;14.73;;
23171;SDS011;11754;42.664;23.594;2023-02-10T09:20:31;20.98;;;13.93;;
23171;SDS011;11754;42.664;23.594;2023-02-10T09:22:57;18.83;;;13.18;;
23171;SDS011;11754;42.664;23.594;2023-02-10T09:25:22;24.13;;;13.75;;
23171;SDS011;11754;42.664;23.594;2023-02-10T09:27:47;20.10;;;13.90;;
23171;SDS011;11754;42.664;23.594;2023-02-10T09:30:13;21.27;;;15.02;;
23171;SDS011;11754;42.664;23.594;2023-02-10T09:32:38;21.42;;;15.32;;
23171;SDS011;11754;42.664;23.594;2023-02-10T09:35:04;24.90;;;15.15;;
23171;SDS011;11754;42.664;23.594;2023-02-10T09:37:29;20.38;;;14.50;;
23171;SDS011;11754;42.664;23.594;2023-02-10T09:39:55;17.73;;;13.05;;
23171;SDS011;11754;42.664;23.594;2023-02-10T09:42:29;16.70;;;12.80;;
23171;SDS011;11754;42.664;23.594;2023-02-10T09:45:29;14.43;;;10.68;;
23171;SDS011;11754;42.664;23.594;2023-02-10T09:48:00;15.90;;;11.00;;
23171;SDS011;11754;42.664;23.594;2023-02-10T09:53:16;15.03;;;10.07;;
23171;SDS011;11754;42.664;23.594;2023-02-10T09:55:50;16.13;;;10.60;;
23171;SDS011;11754;42.664;23.594;2023-02-10T09:58:30;14.73;;;9.80;;
23171;SDS011;11754;42.664;23.594;2023-02-10T10:03:45;16.58;;;11.45;;
23171;SDS011;11754;42.664;23.594;2023-02-10T10:06:16;21.13;;;10.88;;
23171;SDS011;11754;42.664;23.594;2023-02-10T10:11:50;17.50;;;10.85;;
23171;SDS011;11754;42.664;23.594;2023-02-10T10:14:25;16.30;;;11.90;;
23171;SDS011;11754;42.664;23.594;2023-02-10T10:31:17;20.25;;;10.10;;
23171;SDS011;11754;42.664;23.594;2023-02-10T10:36:14;18.73;;;8.73;;
23171;SDS011;11754;42.664;23.594;2023-02-10T10:38:52;14.60;;;8.80;;
23171;SDS011;11754;42.664;23.594;2023-02-10T10:41:23;20.98;;;9.23;;
23171;SDS011;11754;42.664;23.594;2023-02-10T10:43:51;13.63;;;8.23;;
23171;SDS011;11754;42.664;23.594;2023-02-10T10:46:23;12.52;;;8.10;;
23171;SDS011;11754;42.664;23.594;2023-02-10T10:48:51;10.05;;;7.80;;
23171;SDS011;11754;42.664;23.594;2023-02-10T10:51:17;12.45;;;7.97;;
23171;SDS011;11754;42.664;23.594;2023-02-10T10:56:35;12.52;;;7.75;;
23171;SDS011;11754;42.664;23.594;2023-02-10T10:59:17;10.32;;;8.02;;
23171;SDS011;11754;42.664;23.594;2023-02-10T11:01:46;13.57;;;7.93;;
23171;SDS011;11754;42.664;23.594;2023-02-10T11:06:45;8.73;;;6.97;;
23171;SDS011;11754;42.664;23.594;2023-02-10T11:09:24;16.02;;;7.90;;
23171;SDS011;11754;42.664;23.594;2023-02-10T11:11:53;17.67;;;8.50;;
23171;SDS011;11754;42.664;23.594;2023-02-10T11:14:29;8.93;;;6.90;;
23171;SDS011;11754;42.664;23.594;2023-02-10T11:17:15;11.02;;;7.22;;
23171;SDS011;11754;42.664;23.594;2023-02-10T11:20:04;13.52;;;6.68;;
23171;SDS011;11754;42.664;23.594;2023-02-10T11:22:35;17.73;;;7.50;;
23171;SDS011;11754;42.664;23.594;2023-02-10T11:25:02;16.45;;;7.20;;
23171;SDS011;11754;42.664;23.594;2023-02-10T11:27:52;9.30;;;6.75;;
23171;SDS011;11754;42.664;23.594;2023-02-10T11:30:25;13.05;;;7.60;;
23171;SDS011;11754;42.664;23.594;2023-02-10T11:32:53;8.60;;;6.00;;
23171;SDS011;11754;42.664;23.594;2023-02-10T11:35:19;8.48;;;6.30;;
23171;SDS011;11754;42.664;23.594;2023-02-10T11:37:49;11.68;;;6.80;;
23171;SDS011;11754;42.664;23.594;2023-02-10T11:40:24;8.65;;;6.05;;
23171;SDS011;11754;42.664;23.594;2023-02-10T11:42:52;9.48;;;6.13;;
23171;SDS011;11754;42.664;23.594;2023-02-10T11:45:23;8.18;;;5.93;;
23171;SDS011;11754;42.664;23.594;2023-02-10T11:48:03;6.85;;;5.38;;
23171;SDS011;11754;42.664;23.594;2023-02-10T11:50:41;11.38;;;6.15;;
23171;SDS011;11754;42.664;23.594;2023-02-10T11:53:09;11.00;;;5.90;;
23171;SDS011;11754;42.664;23.594;2023-02-10T12:07:13;9.25;;;6.18;;
23171;SDS011;11754;42.664;23.594;2023-02-10T12:09:48;8.25;;;5.82;;
23171;SDS011;11754;42.664;23.594;2023-02-10T12:12:22;12.18;;;6.05;;
23171;SDS011;11754;42.664;23.594;2023-02-10T12:17:54;9.57;;;5.68;;
23171;SDS011;11754;42.664;23.594;2023-02-10T12:23:32;8.98;;;5.15;;
23171;SDS011;11754;42.664;23.594;2023-02-10T12:34:53;5.50;;;4.70;;
23171;SDS011;11754;42.664;23.594;2023-02-10T12:37:38;6.80;;;4.93;;
23171;SDS011;11754;42.664;23.594;2023-02-10T12:54:15;11.07;;;4.82;;
23171;SDS011;11754;42.664;23.594;2023-02-10T13:02:20;10.40;;;5.03;;
23171;SDS011;11754;42.664;23.594;2023-02-10T13:04:55;8.18;;;5.35;;
23171;SDS011;11754;42.664;23.594;2023-02-10T13:07:36;9.75;;;5.30;;
23171;SDS011;11754;42.664;23.594;2023-02-10T13:10:17;7.03;;;5.18;;
23171;SDS011;11754;42.664;23.594;2023-02-10T13:12:46;6.30;;;4.90;;
23171;SDS011;11754;42.664;23.594;2023-02-10T13:15:23;9.27;;;5.25;;
23171;SDS011;11754;42.664;23.594;2023-02-10T13:17:53;11.60;;;5.30;;
23171;SDS011;11754;42.664;23.594;2023-02-10T13:22:49;5.72;;;5.13;;
23171;SDS011;11754;42.664;23.594;2023-02-10T13:25:50;9.90;;;4.85;;
23171;SDS011;11754;42.664;23.594;2023-02-10T13:36:47;10.87;;;5.57;;
23171;SDS011;11754;42.664;23.594;2023-02-10T13:39:30;9.95;;;5.72;;
23171;SDS011;11754;42.664;23.594;2023-02-10T13:44:59;7.45;;;5.50;;
23171;SDS011;11754;42.664;23.594;2023-02-10T13:47:41;7.70;;;4.97;;
23171;SDS011;11754;42.664;23.594;2023-02-10T13:52:54;11.47;;;6.20;;
23171;SDS011;11754;42.664;23.594;2023-02-10T13:57:52;9.07;;;6.33;;
23171;SDS011;11754;42.664;23.594;2023-02-10T14:03:17;17.50;;;13.10;;
23171;SDS011;11754;42.664;23.594;2023-02-10T14:05:53;14.48;;;8.25;;
23171;SDS011;11754;42.664;23.594;2023-02-10T14:08:26;11.80;;;6.53;;
23171;SDS011;11754;42.664;23.594;2023-02-10T14:13:31;12.15;;;7.32;;
23171;SDS011;11754;42.664;23.594;2023-02-10T14:16:03;15.75;;;7.60;;
23171;SDS011;11754;42.664;23.594;2023-02-10T14:19:00;8.07;;;6.53;;
23171;SDS011;11754;42.664;23.594;2023-02-10T14:21:40;12.15;;;6.60;;
23171;SDS011;11754;42.664;23.594;2023-02-10T14:24:11;15.45;;;6.90;;
23171;SDS011;11754;42.664;23.594;2023-02-10T14:26:41;11.13;;;7.00;;
23171;SDS011;11754;42.664;23.594;2023-02-10T14:29:17;9.98;;;7.07;;
23171;SDS011;11754;42.664;23.594;2023-02-10T14:31:52;18.58;;;7.70;;
23171;SDS011;11754;42.664;23.594;2023-02-10T14:34:22;15.10;;;8.27;;
23171;SDS011;11754;42.664;23.594;2023-02-10T14:36:56;17.20;;;8.65;;
23171;SDS011;11754;42.664;23.594;2023-02-10T14:39:24;25.83;;;9.33;;
23171;SDS011;11754;42.664;23.594;2023-02-10T14:41:53;27.20;;;9.10;;
23171;SDS011;11754;42.664;23.594;2023-02-10T14:44:28;21.75;;;13.52;;
23171;SDS011;11754;42.664;23.594;2023-02-10T14:46:59;19.83;;;10.38;;
23171;SDS011;11754;42.664;23.594;2023-02-10T14:49:25;21.08;;;8.73;;
23171;SDS011;11754;42.664;23.594;2023-02-10T14:51:51;19.00;;;8.43;;
23171;SDS011;11754;42.664;23.594;2023-02-10T14:54:18;14.95;;;8.93;;
23171;SDS011;11754;42.664;23.594;2023-02-10T14:59:19;29.10;;;10.35;;
23171;SDS011;11754;42.664;23.594;2023-02-10T15:01:46;28.10;;;10.15;;
23171;SDS011;11754;42.664;23.594;2023-02-10T15:04:17;28.40;;;10.20;;
23171;SDS011;11754;42.664;23.594;2023-02-10T15:06:47;23.33;;;9.80;;
23171;SDS011;11754;42.664;23.594;2023-02-10T15:09:34;30.60;;;9.88;;
23171;SDS011;11754;42.664;23.594;2023-02-10T15:12:04;21.55;;;12.05;;
23171;SDS011;11754;42.664;23.594;2023-02-10T15:17:31;18.92;;;10.50;;
23171;SDS011;11754;42.664;23.594;2023-02-10T15:20:14;23.65;;;11.68;;
23171;SDS011;11754;42.664;23.594;2023-02-10T15:33:34;28.60;;;12.40;;
23171;SDS011;11754;42.664;23.594;2023-02-10T15:38:27;276.38;;;190.05;;
23171;SDS011;11754;42.664;23.594;2023-02-10T15:40:54;47.72;;;15.80;;
23171;SDS011;11754;42.664;23.594;2023-02-10T15:43:22;54.50;;;14.60;;
23171;SDS011;11754;42.664;23.594;2023-02-10T15:45:49;40.67;;;13.30;;
23171;SDS011;11754;42.664;23.594;2023-02-10T15:48:18;29.52;;;13.10;;
23171;SDS011;11754;42.664;23.594;2023-02-10T15:50:45;34.67;;;13.20;;
23171;SDS011;11754;42.664;23.594;2023-02-10T15:53:11;35.13;;;12.93;;
23171;SDS011;11754;42.664;23.594;2023-02-10T15:55:44;38.00;;;13.32;;
23171;SDS011;11754;42.664;23.594;2023-02-10T15:58:11;48.95;;;14.82;;
23171;SDS011;11754;42.664;23.594;2023-02-10T16:00:37;36.17;;;13.27;;
23171;SDS011;11754;42.664;23.594;2023-02-10T16:03:05;41.40;;;14.40;;
23171;SDS011;11754;42.664;23.594;2023-02-10T16:05:31;42.72;;;12.88;;
23171;SDS011;11754;42.664;23.594;2023-02-10T16:10:56;48.70;;;12.93;;
23171;SDS011;11754;42.664;23.594;2023-02-10T16:13:22;78.72;;;22.08;;
23171;SDS011;11754;42.664;23.594;2023-02-10T16:15:48;56.45;;;19.73;;
23171;SDS011;11754;42.664;23.594;2023-02-10T16:18:20;42.83;;;17.35;;
23171;SDS011;11754;42.664;23.594;2023-02-10T16:20:48;41.25;;;19.00;;
23171;SDS011;11754;42.664;23.594;2023-02-10T16:23:15;65.10;;;20.35;;
23171;SDS011;11754;42.664;23.594;2023-02-10T16:25:43;67.75;;;19.90;;
23171;SDS011;11754;42.664;23.594;2023-02-10T16:28:11;59.50;;;21.63;;
23171;SDS011;11754;42.664;23.594;2023-02-10T16:30:39;89.93;;;44.22;;
23171;SDS011;11754;42.664;23.594;2023-02-10T16:33:04;92.50;;;45.92;;
23171;SDS011;11754;42.664;23.594;2023-02-10T16:35:30;82.20;;;41.85;;
23171;SDS011;11754;42.664;23.594;2023-02-10T16:37:56;74.65;;;30.25;;
23171;SDS011;11754;42.664;23.594;2023-02-10T16:40:24;74.38;;;30.33;;
23171;SDS011;11754;42.664;23.594;2023-02-10T16:42:51;77.00;;;29.33;;
23171;SDS011;11754;42.664;23.594;2023-02-10T16:45:18;123.38;;;54.97;;
23171;SDS011;11754;42.664;23.594;2023-02-10T16:47:45;131.52;;;58.97;;
23171;SDS011;11754;42.664;23.594;2023-02-10T16:50:23;142.82;;;67.90;;
23171;SDS011;11754;42.664;23.594;2023-02-10T16:52:49;156.52;;;71.38;;